Time;durP1;ratioP1;P1;durP2;ratioP2;P2;SDS_P1;SDS_P2;PMS_P1;PMS_P2;Temp;Humidity;BMP_temperature;BMP_pressure;BME280_temperature;BME280_humidity;BME280_pressure;Samples;Min_cycle;Max_cycle;Signal;HPM_P1;HPM_P2
2023/03/22 00:01:09;;;;;;;20.02;10.98;;;10.20;99.90;;;;;;5091734;28;20385;-51
2023/03/22 00:03:35;;;;;;;20.40;11.00;;;9.80;99.90;;;;;;5091851;28;20473;-54
2023/03/22 00:06:00;;;;;;;17.75;9.50;;;9.60;99.90;;;;;;5092029;28;20052;-54
2023/03/22 00:08:26;;;;;;;19.55;9.13;;;9.70;99.90;;;;;;5091734;28;20498;-54
2023/03/22 00:10:52;;;;;;;20.33;7.88;;;10.10;99.90;;;;;;5091658;28;20085;-54
2023/03/22 00:13:17;;;;;;;18.00;8.50;;;10.10;99.90;;;;;;5091667;28;20053;-54
2023/03/22 00:15:44;;;;;;;21.55;7.65;;;9.60;99.90;;;;;;5091938;28;20036;-53
2023/03/22 00:18:11;;;;;;;15.20;7.10;;;9.70;99.90;;;;;;5090321;28;20048;-50
2023/03/22 00:20:38;;;;;;;17.60;6.57;;;10.10;99.90;;;;;;5091825;28;20559;-51
2023/03/22 00:23:05;;;;;;;13.40;6.30;;;9.80;99.90;;;;;;5091412;28;20529;-54
2023/03/22 00:25:31;;;;;;;14.80;5.45;;;10.00;99.90;;;;;;5091920;28;20044;-55
2023/03/22 00:27:56;;;;;;;16.05;5.60;;;10.00;99.90;;;;;;5091810;28;20505;-54
2023/03/22 00:30:22;;;;;;;10.13;4.25;;;10.00;99.90;;;;;;5092275;28;20573;-52
2023/03/22 00:32:48;;;;;;;17.75;4.57;;;9.80;99.90;;;;;;5095544;28;20483;-54
2023/03/22 00:35:14;;;;;;;12.73;4.65;;;9.60;99.90;;;;;;5095527;28;20038;-53
2023/03/22 00:37:39;;;;;;;12.38;3.95;;;9.60;99.90;;;;;;5095274;28;20739;-54
2023/03/22 00:40:08;;;;;;;13.10;4.13;;;9.70;99.90;;;;;;5095389;28;20468;-55
2023/03/22 00:42:38;;;;;;;12.98;3.53;;;9.70;99.90;;;;;;5095182;28;20385;-54
2023/03/22 00:45:06;;;;;;;13.02;3.75;;;9.90;99.90;;;;;;5095253;28;20436;-53
2023/03/22 00:47:32;;;;;;;11.30;3.33;;;9.80;99.90;;;;;;5095035;28;20036;-53
2023/03/22 00:49:59;;;;;;;12.27;3.28;;;9.50;99.90;;;;;;5095204;28;20050;-53
2023/03/22 00:52:24;;;;;;;11.13;3.08;;;9.90;99.90;;;;;;5094968;28;20119;-54
2023/03/22 00:54:50;;;;;;;13.88;3.97;;;9.80;99.90;;;;;;5095396;28;20107;-51
2023/03/22 00:57:16;;;;;;;11.98;2.85;;;9.40;99.90;;;;;;5094945;28;20044;-53
2023/03/22 00:59:42;;;;;;;10.15;3.30;;;9.60;99.90;;;;;;5095074;28;20130;-52
2023/03/22 01:02:12;;;;;;;16.83;3.22;;;9.90;99.90;;;;;;5094996;28;20074;-54
2023/03/22 01:04:45;;;;;;;13.20;2.40;;;9.60;99.90;;;;;;5094884;28;20044;-54
2023/03/22 01:07:20;;;;;;;11.13;2.85;;;9.50;99.90;;;;;;5094891;28;20426;-54
2023/03/22 01:09:51;;;;;;;10.40;2.33;;;9.60;99.90;;;;;;5094985;28;20040;-54
2023/03/22 01:12:18;;;;;;;13.48;3.67;;;9.70;99.90;;;;;;5094825;28;20094;-53
2023/03/22 01:14:44;;;;;;;10.88;2.40;;;9.50;99.90;;;;;;5094728;28;20044;-50
2023/03/22 01:17:10;;;;;;;10.02;2.42;;;9.70;99.90;;;;;;5094358;28;20568;-54
2023/03/22 01:19:36;;;;;;;10.88;2.70;;;9.80;99.90;;;;;;5094602;28;20130;-53
2023/03/22 01:22:04;;;;;;;8.40;2.33;;;9.60;99.90;;;;;;5094378;28;20031;-53
2023/03/22 01:24:30;;;;;;;9.05;2.33;;;9.70;99.90;;;;;;5094228;28;20134;-51
2023/03/22 01:26:56;;;;;;;11.30;2.60;;;9.50;99.90;;;;;;5093349;28;20066;-53
2023/03/22 01:29:22;;;;;;;10.50;2.28;;;9.70;99.90;;;;;;5094430;28;20048;-53
2023/03/22 01:31:48;;;;;;;9.60;2.00;;;9.60;99.90;;;;;;5093230;28;20404;-55
2023/03/22 01:34:14;;;;;;;12.13;3.40;;;9.30;99.90;;;;;;5094025;28;20047;-54
2023/03/22 01:36:39;;;;;;;11.32;2.20;;;9.70;99.90;;;;;;5094456;28;20119;-53
2023/03/22 01:39:05;;;;;;;9.65;2.30;;;9.30;99.90;;;;;;5094345;28;20055;-54
2023/03/22 01:41:34;;;;;;;9.63;2.22;;;9.60;99.90;;;;;;5093976;28;20040;-54
2023/03/22 01:44:23;;;;;;;11.55;1.90;;;9.20;99.90;;;;;;5094057;28;20052;-54
2023/03/22 01:46:50;;;;;;;13.80;2.40;;;9.40;99.90;;;;;;5088283;28;20055;-52
2023/03/22 01:49:33;;;;;;;11.20;2.75;;;9.60;99.90;;;;;;5093507;28;20490;-54
2023/03/22 01:52:07;;;;;;;12.55;2.03;;;9.20;99.90;;;;;;5093913;28;20047;-53
2023/03/22 01:54:41;;;;;;;11.88;2.10;;;9.50;99.90;;;;;;5094005;28;20565;-54
2023/03/22 01:57:07;;;;;;;10.80;2.38;;;9.50;99.90;;;;;;5093771;28;20516;-55
2023/03/22 01:59:33;;;;;;;9.30;2.00;;;9.50;99.90;;;;;;5092418;28;20534;-53
2023/03/22 02:01:59;;;;;;;10.55;1.95;;;9.20;99.90;;;;;;5093886;28;20327;-54
2023/03/22 02:04:32;;;;;;;8.90;1.95;;;9.10;99.90;;;;;;5093851;28;20126;-54
2023/03/22 02:07:14;;;;;;;9.30;2.05;;;9.30;99.90;;;;;;5093739;28;20171;-50
2023/03/22 02:09:41;;;;;;;9.63;2.42;;;9.40;99.90;;;;;;5093477;28;20476;-51
2023/03/22 02:12:40;;;;;;;9.65;2.00;;;9.00;99.90;;;;;;5093811;28;20036;-51
2023/03/22 02:15:28;;;;;;;7.72;2.25;;;9.10;99.90;;;;;;5093493;28;20063;-54
2023/03/22 02:18:23;;;;;;;9.77;2.00;;;9.10;99.90;;;;;;5093379;28;20093;-54
2023/03/22 02:21:16;;;;;;;12.90;2.92;;;9.40;99.90;;;;;;5084037;28;20127;-54
2023/03/22 02:23:44;;;;;;;;;;;9.30;99.90;;;;;;5094155;28;20073;-55
2023/03/22 02:26:34;;;;;;;12.35;1.85;;;9.10;99.90;;;;;;5092917;28;19931;-54
2023/03/22 02:29:16;;;;;;;7.13;1.73;;;9.20;99.90;;;;;;5093603;28;20040;-54
2023/03/22 02:32:08;;;;;;;7.78;1.75;;;9.10;99.90;;;;;;5092240;28;20094;-54
2023/03/22 02:34:58;;;;;;;10.35;1.80;;;9.10;99.90;;;;;;5092989;28;20044;-53
2023/03/22 02:37:54;;;;;;;8.73;1.85;;;9.10;99.90;;;;;;5091893;28;20438;-54
2023/03/22 02:40:49;;;;;;;12.43;1.90;;;9.40;99.90;;;;;;5093056;28;20044;-53
2023/03/22 02:43:37;;;;;;;8.63;1.90;;;9.20;99.90;;;;;;5093259;28;20051;-54
2023/03/22 02:46:20;;;;;;;9.10;1.85;;;9.10;99.90;;;;;;5092651;28;20508;-53
2023/03/22 02:49:10;;;;;;;13.15;2.45;;;9.30;99.90;;;;;;5092759;28;20652;-55
2023/03/22 02:52:09;;;;;;;11.43;1.63;;;9.30;99.90;;;;;;5092865;28;20178;-54
2023/03/22 02:54:53;;;;;;;9.63;1.90;;;9.40;99.90;;;;;;5091099;28;20047;-54
2023/03/22 02:57:33;;;;;;;11.50;2.75;;;9.40;99.90;;;;;;5092788;28;20044;-54
2023/03/22 03:00:01;;;;;;;8.82;2.13;;;9.10;99.90;;;;;;5092883;28;20044;-54
2023/03/22 03:02:28;;;;;;;8.18;1.98;;;9.50;99.90;;;;;;5092746;28;20052;-55
2023/03/22 03:04:55;;;;;;;9.13;2.13;;;9.50;99.90;;;;;;5091220;28;20048;-53
2023/03/22 03:07:25;;;;;;;9.80;2.08;;;9.40;99.90;;;;;;5092630;28;20047;-54
2023/03/22 03:09:52;;;;;;;11.25;2.83;;;9.20;99.90;;;;;;5091203;28;20396;-54
2023/03/22 03:12:22;;;;;;;9.60;2.10;;;9.40;99.90;;;;;;5092764;28;20047;-55
2023/03/22 03:14:48;;;;;;;11.65;2.35;;;9.10;99.90;;;;;;5092589;28;20109;-53
2023/03/22 03:17:42;;;;;;;9.02;1.88;;;9.20;99.90;;;;;;5092408;28;20075;-52
2023/03/22 03:20:29;;;;;;;13.98;2.50;;;9.60;99.90;;;;;;5090823;28;20086;-54
2023/03/22 03:23:27;;;;;;;11.65;2.13;;;9.20;99.90;;;;;;5092153;28;20105;-53
2023/03/22 03:26:21;;;;;;;9.90;1.80;;;9.40;99.90;;;;;;5092151;28;20074;-54
2023/03/22 03:29:12;;;;;;;11.73;2.20;;;9.20;99.90;;;;;;5072432;28;20054;-55
2023/03/22 03:32:00;;;;;;;14.50;2.80;;;9.60;99.90;;;;;;5092273;28;20090;-54
2023/03/22 03:34:37;;;;;;;13.38;3.45;;;9.20;99.90;;;;;;5091976;28;20032;-50
2023/03/22 03:37:08;;;;;;;12.73;2.50;;;9.60;99.90;;;;;;5091965;28;20395;-52
2023/03/22 03:39:38;;;;;;;12.82;1.88;;;9.60;99.90;;;;;;5092185;28;20442;-53
2023/03/22 03:42:10;;;;;;;12.07;2.42;;;9.30;99.90;;;;;;5092001;28;20070;-54
2023/03/22 03:44:37;;;;;;;9.38;2.08;;;9.10;99.90;;;;;;5091910;28;20393;-52
2023/03/22 03:47:06;;;;;;;17.35;2.80;;;9.60;99.90;;;;;;5091687;28;20488;-54
2023/03/22 03:49:32;;;;;;;10.00;2.33;;;9.40;99.90;;;;;;5091584;28;20044;-56
2023/03/22 03:51:59;;;;;;;17.08;2.88;;;9.50;99.90;;;;;;5091923;28;20101;-55
2023/03/22 03:54:25;;;;;;;13.50;2.55;;;9.20;99.90;;;;;;5091945;28;20040;-54
2023/03/22 03:56:50;;;;;;;12.48;2.25;;;9.30;99.90;;;;;;5091820;28;20044;-54
2023/03/22 03:59:17;;;;;;;13.77;2.60;;;9.60;99.90;;;;;;5091968;28;20039;-55
2023/03/22 04:01:51;;;;;;;10.25;2.38;;;9.60;99.90;;;;;;5091734;28;20043;-53
2023/03/22 04:04:26;;;;;;;14.48;2.47;;;9.60;99.90;;;;;;5092245;28;20047;-54
2023/03/22 04:06:57;;;;;;;10.93;2.58;;;9.40;99.90;;;;;;5094700;28;20074;-52
2023/03/22 04:09:29;;;;;;;11.93;2.20;;;9.60;99.90;;;;;;5094965;28;20093;-52
2023/03/22 04:11:55;;;;;;;14.10;3.72;;;9.20;99.90;;;;;;5095874;28;20074;-52
2023/03/22 04:14:21;;;;;;;12.65;2.75;;;9.20;99.90;;;;;;5095557;28;20094;-54
2023/03/22 04:16:47;;;;;;;12.20;3.88;;;9.40;99.90;;;;;;5095860;28;20051;-53
2023/03/22 04:19:13;;;;;;;11.02;2.38;;;9.60;99.90;;;;;;5095827;28;20069;-53
2023/03/22 04:21:39;;;;;;;13.07;3.50;;;9.50;99.90;;;;;;5094560;28;20128;-53
2023/03/22 04:24:06;;;;;;;12.88;3.35;;;9.50;99.90;;;;;;5095236;28;20087;-53
2023/03/22 04:26:32;;;;;;;14.32;2.90;;;9.20;99.90;;;;;;5095464;28;20124;-55
2023/03/22 04:28:58;;;;;;;9.48;3.17;;;9.50;99.90;;;;;;5094237;28;20119;-51
2023/03/22 04:31:26;;;;;;;10.85;2.72;;;9.20;99.90;;;;;;5095700;28;20119;-52
2023/03/22 04:33:55;;;;;;;7.82;2.72;;;9.40;99.90;;;;;;5095358;28;20492;-52
2023/03/22 04:36:22;;;;;;;9.82;2.65;;;9.20;99.90;;;;;;5095558;28;20055;-52
2023/03/22 04:38:49;;;;;;;11.45;2.60;;;9.20;99.90;;;;;;5095406;28;20577;-54
2023/03/22 04:41:15;;;;;;;10.55;2.80;;;9.40;99.90;;;;;;5093932;28;20043;-54
2023/03/22 04:43:40;;;;;;;13.05;3.35;;;9.50;99.90;;;;;;5095113;28;20044;-51
2023/03/22 04:46:08;;;;;;;10.48;3.17;;;9.40;99.90;;;;;;5095356;28;20436;-54
2023/03/22 04:48:39;;;;;;;13.25;3.03;;;9.20;99.90;;;;;;5095317;28;20114;-54
2023/03/22 04:51:06;;;;;;;16.48;3.83;;;9.40;99.90;;;;;;5095088;28;20100;-54
2023/03/22 04:53:37;;;;;;;10.82;3.58;;;9.50;99.90;;;;;;5095159;28;20103;-53
2023/03/22 04:56:09;;;;;;;11.23;3.55;;;9.30;99.90;;;;;;5094937;28;20454;-53
2023/03/22 04:58:38;;;;;;;11.57;4.22;;;9.30;99.90;;;;;;5094135;28;20044;-54
2023/03/22 05:01:04;;;;;;;14.15;3.97;;;9.30;99.90;;;;;;5094718;28;20115;-54
2023/03/22 05:03:30;;;;;;;12.43;3.83;;;9.60;99.90;;;;;;5095011;28;20088;-53
2023/03/22 05:05:58;;;;;;;12.52;4.00;;;9.30;99.90;;;;;;5094851;28;20127;-54
2023/03/22 05:08:25;;;;;;;11.85;4.18;;;9.50;99.90;;;;;;5094702;28;20059;-55
2023/03/22 05:10:53;;;;;;;15.15;4.40;;;9.30;99.90;;;;;;5095042;28;20044;-54
2023/03/22 05:13:20;;;;;;;12.02;4.13;;;9.20;99.90;;;;;;5094698;28;20064;-54
2023/03/22 05:15:47;;;;;;;15.07;5.07;;;9.20;99.90;;;;;;5094300;28;20050;-54
2023/03/22 05:18:15;;;;;;;14.13;4.40;;;9.40;99.90;;;;;;5093954;28;20046;-54
2023/03/22 05:20:42;;;;;;;14.18;4.93;;;9.40;99.90;;;;;;5094380;28;20036;-54
2023/03/22 05:23:08;;;;;;;13.93;6.53;;;9.50;99.90;;;;;;5094139;28;20500;-54
2023/03/22 05:25:35;;;;;;;15.23;6.60;;;9.60;99.90;;;;;;5094563;28;20052;-55
2023/03/22 05:28:02;;;;;;;14.32;5.78;;;9.20;99.90;;;;;;5094508;28;20040;-54
2023/03/22 05:30:28;;;;;;;14.70;6.32;;;9.30;99.90;;;;;;5094442;28;20040;-54
2023/03/22 05:32:58;;;;;;;16.10;7.53;;;9.60;99.90;;;;;;5094588;28;20064;-54
2023/03/22 05:35:25;;;;;;;15.25;6.80;;;9.50;99.90;;;;;;5094314;28;20047;-52
2023/03/22 05:37:51;;;;;;;16.65;7.85;;;9.40;99.90;;;;;;5094116;28;20107;-54
2023/03/22 05:40:17;;;;;;;13.80;7.15;;;9.60;99.90;;;;;;5094334;28;20480;-53
2023/03/22 05:42:44;;;;;;;20.42;8.60;;;9.20;99.90;;;;;;5093068;28;20036;-54
2023/03/22 05:45:10;;;;;;;20.58;8.40;;;9.20;99.90;;;;;;5094209;28;20040;-52
2023/03/22 05:47:38;;;;;;;17.40;9.02;;;9.70;99.90;;;;;;5094283;28;20071;-50
2023/03/22 05:50:09;;;;;;;20.40;8.60;;;9.70;99.90;;;;;;5093884;28;20361;-53
2023/03/22 05:52:35;;;;;;;16.23;8.10;;;9.40;99.90;;;;;;5073774;28;20473;-54
2023/03/22 05:55:01;;;;;;;17.70;8.70;;;9.70;99.90;;;;;;5072190;28;20040;-51
2023/03/22 05:57:28;;;;;;;17.63;9.45;;;9.70;99.90;;;;;;5073424;28;20182;-53
2023/03/22 05:59:58;;;;;;;18.55;9.00;;;9.60;99.90;;;;;;5075374;28;20119;-52
2023/03/22 06:02:24;;;;;;;22.65;8.68;;;9.30;99.90;;;;;;5071854;28;20051;-54
2023/03/22 06:04:53;;;;;;;17.73;9.27;;;9.40;99.90;;;;;;5092098;28;20044;-54
2023/03/22 06:07:19;;;;;;;18.88;8.73;;;9.50;99.90;;;;;;5090722;28;20048;-54
2023/03/22 06:09:45;;;;;;;18.20;8.80;;;9.60;99.90;;;;;;5092136;28;20043;-54
2023/03/22 06:12:14;;;;;;;17.80;8.93;;;9.80;99.90;;;;;;5088757;28;20036;-54
2023/03/22 06:14:39;;;;;;;20.40;10.07;;;9.60;99.90;;;;;;5075900;28;20040;-53
2023/03/22 06:17:05;;;;;;;19.70;10.48;;;9.40;99.90;;;;;;5079762;28;20079;-52
2023/03/22 06:19:31;;;;;;;17.05;9.98;;;9.50;99.90;;;;;;5071403;28;20041;-53
2023/03/22 06:21:56;;;;;;;17.27;9.48;;;9.50;99.90;;;;;;5071667;28;20055;-54
2023/03/22 06:24:22;;;;;;;17.52;8.93;;;9.90;99.90;;;;;;5071426;28;20084;-54
2023/03/22 06:26:48;;;;;;;18.58;9.73;;;9.60;99.90;;;;;;5071609;28;20432;-53
2023/03/22 06:29:14;;;;;;;19.77;9.80;;;9.90;99.90;;;;;;5070565;28;20120;-54
2023/03/22 06:31:39;;;;;;;22.52;9.93;;;9.90;99.90;;;;;;5070279;28;20040;-52
2023/03/22 06:34:06;;;;;;;26.75;11.43;;;10.00;99.90;;;;;;5071209;28;20044;-55
2023/03/22 06:36:31;;;;;;;20.42;10.55;;;9.50;99.90;;;;;;5071578;28;20119;-54
2023/03/22 06:39:01;;;;;;;21.80;10.02;;;10.00;99.90;;;;;;5071347;28;20171;-52
2023/03/22 06:41:27;;;;;;;18.63;9.45;;;10.00;99.90;;;;;;5071188;28;20053;-51
2023/03/22 06:43:53;;;;;;;19.95;10.27;;;9.60;99.90;;;;;;5071199;28;20044;-54
2023/03/22 06:46:18;;;;;;;17.73;9.88;;;10.10;99.90;;;;;;5070033;28;20158;-54
2023/03/22 06:48:44;;;;;;;20.60;11.02;;;9.90;99.90;;;;;;5074248;28;20040;-54
2023/03/22 06:51:10;;;;;;;21.85;10.45;;;10.10;99.90;;;;;;5091120;28;20541;-55
2023/03/22 06:53:35;;;;;;;19.58;10.45;;;10.00;99.90;;;;;;5091345;28;20040;-54
2023/03/22 06:56:01;;;;;;;18.67;11.45;;;9.70;99.90;;;;;;5091247;28;20036;-54
2023/03/22 06:58:27;;;;;;;18.25;10.60;;;10.00;99.90;;;;;;5091165;28;20559;-50
2023/03/22 07:00:55;;;;;;;22.15;12.32;;;9.90;99.90;;;;;;5091046;28;20043;-57
2023/03/22 07:03:21;;;;;;;21.65;11.27;;;10.00;99.90;;;;;;5090913;28;20483;-54
2023/03/22 07:05:47;;;;;;;19.42;11.50;;;10.40;99.90;;;;;;5090996;28;20080;-54
2023/03/22 07:08:12;;;;;;;19.45;10.63;;;10.20;99.90;;;;;;5090898;28;20043;-56
2023/03/22 07:10:38;;;;;;;17.40;10.15;;;10.30;99.90;;;;;;5089626;28;20523;-55
2023/03/22 07:13:04;;;;;;;20.33;11.02;;;10.00;99.90;;;;;;5090814;28;20420;-55
2023/03/22 07:15:31;;;;;;;22.67;11.40;;;10.50;99.90;;;;;;5090817;28;20048;-54
2023/03/22 07:17:59;;;;;;;19.23;11.15;;;10.00;99.90;;;;;;5090828;28;20040;-54
2023/03/22 07:20:25;;;;;;;20.63;11.70;;;9.90;99.90;;;;;;5090692;28;20032;-54
2023/03/22 07:22:51;;;;;;;21.27;10.93;;;10.00;99.90;;;;;;5090807;28;20056;-53
2023/03/22 07:25:17;;;;;;;22.80;12.25;;;10.40;99.90;;;;;;5090637;28;20397;-54
2023/03/22 07:27:43;;;;;;;17.50;10.52;;;10.20;99.90;;;;;;5090285;28;20039;-53
2023/03/22 07:30:10;;;;;;;18.10;10.60;;;10.50;99.90;;;;;;5090084;28;20040;-51
2023/03/22 07:32:37;;;;;;;18.00;10.05;;;10.00;99.90;;;;;;5089172;28;20047;-51
2023/03/22 07:35:03;;;;;;;21.17;10.35;;;10.10;99.90;;;;;;5090506;28;20032;-52
2023/03/22 07:37:29;;;;;;;20.15;10.75;;;10.30;99.90;;;;;;5090795;28;20051;-51
2023/03/22 07:39:55;;;;;;;17.13;9.88;;;10.20;99.90;;;;;;5090232;28;20044;-55
2023/03/22 07:42:20;;;;;;;18.27;10.18;;;10.30;99.90;;;;;;5090419;28;20032;-51
2023/03/22 07:44:48;;;;;;;19.55;10.43;;;10.40;99.90;;;;;;5090991;28;20040;-51
2023/03/22 07:47:14;;;;;;;20.33;9.85;;;10.00;99.90;;;;;;5090257;28;20093;-54
2023/03/22 07:49:40;;;;;;;18.88;9.68;;;10.00;99.90;;;;;;5090215;28;20044;-54
2023/03/22 07:52:05;;;;;;;16.58;8.70;;;10.40;99.90;;;;;;5090436;28;20578;-51
2023/03/22 07:54:31;;;;;;;20.45;9.50;;;10.50;99.90;;;;;;5090133;28;20044;-55
2023/03/22 07:56:57;;;;;;;17.90;9.68;;;10.30;99.90;;;;;;5088607;28;20116;-54
2023/03/22 07:59:23;;;;;;;17.08;8.48;;;10.50;99.90;;;;;;5087916;28;20136;-54
2023/03/22 08:01:49;;;;;;;24.42;9.43;;;10.80;99.90;;;;;;5088251;28;20052;-54
2023/03/22 08:04:15;;;;;;;18.80;8.90;;;10.50;99.90;;;;;;5089668;28;20040;-53
2023/03/22 08:06:41;;;;;;;19.85;7.95;;;10.50;99.90;;;;;;5082404;28;20116;-54
2023/03/22 08:09:07;;;;;;;17.30;8.82;;;10.90;99.90;;;;;;5069486;28;20067;-52
2023/03/22 08:11:34;;;;;;;17.40;9.00;;;10.90;99.90;;;;;;5069797;28;20041;-54
2023/03/22 08:14:00;;;;;;;17.27;8.98;;;10.70;99.90;;;;;;5069806;28;20041;-54
2023/03/22 08:16:26;;;;;;;15.90;7.50;;;10.50;99.90;;;;;;5070100;28;20044;-52
2023/03/22 08:18:52;;;;;;;13.68;7.68;;;10.70;99.90;;;;;;5068879;28;20036;-52
2023/03/22 08:21:17;;;;;;;16.83;7.90;;;10.90;99.90;;;;;;5069688;28;20493;-54
2023/03/22 08:23:43;;;;;;;16.42;7.35;;;10.60;99.90;;;;;;5069687;28;20562;-53
2023/03/22 08:26:09;;;;;;;16.30;7.70;;;10.90;99.90;;;;;;5069721;28;20052;-53
2023/03/22 08:28:35;;;;;;;18.05;8.25;;;10.70;99.90;;;;;;5068760;28;20544;-55
2023/03/22 08:31:09;;;;;;;14.25;7.40;;;11.00;99.90;;;;;;5069803;28;20116;-50
2023/03/22 08:33:35;;;;;;;17.80;8.10;;;10.90;99.90;;;;;;5070003;28;20079;-52
2023/03/22 08:36:13;;;;;;;13.35;7.30;;;10.80;99.90;;;;;;5069828;28;20087;-53
2023/03/22 08:38:38;;;;;;;22.00;7.57;;;11.00;99.90;;;;;;5079090;28;20423;-51
2023/03/22 08:41:04;;;;;;;17.88;8.48;;;10.80;99.90;;;;;;5077384;28;20047;-54
2023/03/22 08:43:30;;;;;;;17.73;7.43;;;10.90;99.90;;;;;;5080140;28;20032;-51
2023/03/22 08:45:56;;;;;;;16.77;6.63;;;11.00;99.90;;;;;;5079470;28;20828;-55
2023/03/22 08:48:21;;;;;;;16.23;6.90;;;11.10;99.90;;;;;;5079360;28;20051;-54
2023/03/22 08:50:47;;;;;;;16.45;6.57;;;10.90;99.90;;;;;;5083310;28;20032;-54
2023/03/22 08:53:13;;;;;;;17.55;7.13;;;11.10;99.90;;;;;;5083555;28;20041;-53
2023/03/22 08:55:43;;;;;;;17.70;6.85;;;11.00;99.90;;;;;;5081653;28;20138;-54
2023/03/22 08:58:13;;;;;;;14.02;6.53;;;11.00;99.90;;;;;;5084819;28;20043;-51
2023/03/22 09:00:40;;;;;;;15.20;7.43;;;11.10;99.90;;;;;;5092937;28;20362;-54
2023/03/22 09:03:05;;;;;;;16.35;6.28;;;11.00;99.90;;;;;;5091864;28;20036;-54
2023/03/22 09:05:31;;;;;;;13.55;6.07;;;10.90;99.90;;;;;;5092445;28;20032;-51
2023/03/22 09:07:57;;;;;;;12.57;6.47;;;11.10;99.90;;;;;;5092918;28;20051;-51
2023/03/22 09:10:23;;;;;;;13.57;6.47;;;11.10;99.90;;;;;;5092112;28;20036;-51
2023/03/22 09:12:48;;;;;;;14.02;6.65;;;10.90;99.90;;;;;;5093345;28;20123;-50
2023/03/22 09:15:14;;;;;;;14.98;6.00;;;11.00;99.90;;;;;;5092920;28;20043;-55
2023/03/22 09:17:40;;;;;;;16.35;6.72;;;11.20;99.90;;;;;;5092506;28;20048;-55
2023/03/22 09:20:06;;;;;;;16.23;7.03;;;11.20;99.90;;;;;;5092770;28;20028;-54
2023/03/22 09:22:32;;;;;;;13.27;6.35;;;11.30;99.90;;;;;;5091416;28;20047;-54
2023/03/22 09:24:57;;;;;;;14.32;6.80;;;10.90;99.90;;;;;;5092565;28;20041;-54
2023/03/22 09:27:23;;;;;;;16.83;5.85;;;11.10;99.90;;;;;;5092985;28;20054;-54
2023/03/22 09:29:51;;;;;;;11.20;5.78;;;11.10;99.90;;;;;;5092869;28;20093;-53
2023/03/22 09:32:17;;;;;;;18.40;6.13;;;11.10;99.90;;;;;;5092732;28;20123;-53
2023/03/22 09:34:43;;;;;;;16.98;5.47;;;10.90;99.90;;;;;;5092498;28;20404;-54
2023/03/22 09:37:11;;;;;;;14.45;5.50;;;10.90;99.90;;;;;;5092532;28;20040;-53
2023/03/22 09:39:38;;;;;;;13.80;5.90;;;11.10;99.90;;;;;;5091276;28;20052;-54
2023/03/22 09:42:20;;;;;;;12.35;5.35;;;11.00;99.90;;;;;;5091139;28;20055;-53
2023/03/22 09:44:50;;;;;;;13.82;5.35;;;11.00;99.90;;;;;;5092722;28;20078;-53
2023/03/22 09:47:24;;;;;;;11.27;4.85;;;10.60;99.90;;;;;;5092504;28;20046;-54
2023/03/22 09:50:07;;;;;;;12.65;4.55;;;10.80;99.90;;;;;;5092564;28;20387;-53
2023/03/22 09:52:33;;;;;;;10.32;4.35;;;11.00;99.90;;;;;;5092492;28;20396;-51
2023/03/22 09:54:59;;;;;;;14.95;4.88;;;10.90;99.90;;;;;;5092126;28;20042;-53
2023/03/22 09:57:28;;;;;;;12.32;5.35;;;10.90;99.90;;;;;;5092623;28;20052;-51
2023/03/22 10:00:28;;;;;;;15.68;4.65;;;10.80;99.90;;;;;;5090965;28;20047;-55
2023/03/22 10:03:13;;;;;;;11.55;5.07;;;10.60;99.90;;;;;;5091963;28;20051;-52
2023/03/22 10:05:53;;;;;;;9.02;4.57;;;10.50;99.90;;;;;;5092067;28;20083;-53
2023/03/22 10:09:02;;;;;;;11.75;4.97;;;10.20;99.90;;;;;;5091046;28;20040;-51
2023/03/22 10:11:36;;;;;;;10.77;4.65;;;10.20;99.90;;;;;;5092052;28;20479;-51
2023/03/22 10:14:08;;;;;;;13.48;4.78;;;10.60;99.90;;;;;;5085176;28;20028;-53
2023/03/22 10:16:34;;;;;;;11.40;4.93;;;10.10;99.90;;;;;;5073822;28;20099;-53
2023/03/22 10:19:11;;;;;;;14.18;4.80;;;10.70;99.90;;;;;;5071323;28;20048;-53
2023/03/22 10:21:37;;;;;;;12.02;4.78;;;10.60;99.90;;;;;;5071404;28;20041;-55
2023/03/22 10:24:14;;;;;;;16.42;5.13;;;10.60;99.90;;;;;;5070509;28;20056;-53
2023/03/22 10:26:43;;;;;;;11.15;4.90;;;10.30;99.90;;;;;;5072547;28;20186;-52
2023/03/22 10:29:22;;;;;;;13.30;5.03;;;10.40;99.90;;;;;;5072465;28;20162;-52
2023/03/22 10:31:47;;;;;;;12.45;5.03;;;9.90;99.90;;;;;;5072581;28;20066;-54
2023/03/22 10:34:32;;;;;;;15.63;4.90;;;10.40;99.90;;;;;;5072935;28;20028;-52
2023/03/22 10:37:02;;;;;;;13.48;5.20;;;10.00;99.90;;;;;;5071559;28;20048;-51
2023/03/22 10:39:45;;;;;;;13.35;5.00;;;10.10;99.90;;;;;;5070571;28;20507;-52
2023/03/22 10:42:15;;;;;;;11.00;4.82;;;10.40;99.90;;;;;;5071667;28;20055;-53
2023/03/22 10:44:49;;;;;;;13.15;5.20;;;10.40;99.90;;;;;;5071215;28;20041;-54
2023/03/22 10:47:17;;;;;;;14.00;5.57;;;9.70;99.90;;;;;;5071890;28;20556;-53
2023/03/22 10:49:53;;;;;;;13.80;5.05;;;9.90;99.90;;;;;;5084646;28;20612;-54
2023/03/22 10:52:43;;;;;;;14.90;4.60;;;10.40;99.90;;;;;;5092213;28;20036;-54
2023/03/22 10:55:14;;;;;;;13.10;5.57;;;10.30;99.90;;;;;;5091140;28;20073;-52
2023/03/22 10:57:42;;;;;;;14.10;5.05;;;10.40;99.90;;;;;;5074372;28;20396;-51
2023/03/22 11:00:12;;;;;;;11.50;4.97;;;9.80;99.90;;;;;;5091558;28;20070;-53
2023/03/22 11:02:52;;;;;;;14.02;4.85;;;9.70;99.90;;;;;;5091616;28;20085;-53
2023/03/22 11:05:21;;;;;;;12.52;4.60;;;9.70;99.90;;;;;;5092496;28;20119;-53
2023/03/22 11:07:48;;;;;;;11.50;4.63;;;10.50;99.90;;;;;;5092411;28;20051;-51
2023/03/22 11:10:31;;;;;;;12.70;4.90;;;9.70;99.90;;;;;;5091284;28;20221;-54
2023/03/22 11:13:06;;;;;;;9.38;4.10;;;10.50;99.90;;;;;;5091289;28;20090;-53
2023/03/22 11:15:33;;;;;;;12.07;4.57;;;10.60;99.90;;;;;;5092003;28;20425;-51
2023/03/22 11:18:06;;;;;;;10.07;4.85;;;9.80;99.90;;;;;;5092589;28;20404;-52
2023/03/22 11:20:33;;;;;;;12.70;4.80;;;10.60;99.90;;;;;;5092221;28;20036;-52
2023/03/22 11:23:04;;;;;;;12.05;4.50;;;9.80;99.90;;;;;;5091869;28;20586;-52
2023/03/22 11:25:33;;;;;;;15.02;5.55;;;9.90;99.90;;;;;;5092097;28;20052;-52
2023/03/22 11:28:19;;;;;;;13.82;4.88;;;10.10;99.90;;;;;;5092264;28;20111;-53
2023/03/22 11:31:01;;;;;;;11.90;4.40;;;10.10;99.90;;;;;;5090996;28;20054;-50
2023/03/22 11:33:27;;;;;;;13.55;4.82;;;10.20;99.90;;;;;;5091953;28;20036;-52
2023/03/22 11:35:58;;;;;;;10.43;4.63;;;10.00;99.90;;;;;;5091978;28;20506;-54
2023/03/22 11:39:00;;;;;;;10.35;4.43;;;9.90;99.90;;;;;;5090652;28;20047;-51
2023/03/22 11:41:33;;;;;;;10.43;5.05;;;10.60;99.90;;;;;;5078436;28;20121;-51
2023/03/22 11:44:06;;;;;;;12.23;4.75;;;10.60;99.90;;;;;;5090959;28;20104;-53
2023/03/22 11:46:33;;;;;;;17.42;5.10;;;10.20;99.90;;;;;;5091907;28;20040;-52
2023/03/22 11:49:13;;;;;;;9.63;5.45;;;10.60;99.90;;;;;;5091791;28;20043;-53
2023/03/22 11:51:39;;;;;;;8.40;4.65;;;10.10;99.90;;;;;;5091883;28;20110;-51
2023/03/22 11:54:22;;;;;;;13.05;5.03;;;10.30;99.90;;;;;;5090849;28;20068;-52
2023/03/22 11:56:47;;;;;;;;;;;10.10;99.90;;;;;;5092296;28;20048;-52
2023/03/22 11:59:36;;;;;;;10.50;4.75;;;10.10;99.90;;;;;;5090385;28;19969;-54
2023/03/22 12:02:13;;;;;;;10.27;5.13;;;10.70;99.90;;;;;;5092115;28;20438;-53
2023/03/22 12:04:41;;;;;;;12.07;5.57;;;10.40;99.90;;;;;;5090584;28;20044;-52
2023/03/22 12:07:14;;;;;;;10.65;4.20;;;10.40;99.90;;;;;;5091697;28;20078;-53
2023/03/22 12:09:50;;;;;;;12.05;4.60;;;10.10;99.90;;;;;;5091779;28;20071;-55
2023/03/22 12:12:20;;;;;;;13.98;5.63;;;10.80;99.90;;;;;;5091793;28;20032;-54
2023/03/22 12:14:56;;;;;;;10.20;4.82;;;10.70;99.90;;;;;;5091625;28;20044;-54
2023/03/22 12:17:46;;;;;;;10.75;6.22;;;10.70;99.90;;;;;;5091566;28;20487;-53
2023/03/22 12:20:15;;;;;;;13.65;4.80;;;10.40;99.90;;;;;;5091780;28;20040;-53
2023/03/22 12:22:46;;;;;;;9.98;4.55;;;10.20;99.90;;;;;;5091551;28;20081;-52
2023/03/22 12:25:19;;;;;;;11.30;4.85;;;10.20;99.90;;;;;;5091369;28;20310;-52
2023/03/22 12:27:51;;;;;;;9.57;5.03;;;10.60;99.90;;;;;;5094443;28;20044;-53
2023/03/22 12:30:21;;;;;;;10.32;4.95;;;10.20;99.90;;;;;;5095571;28;20071;-55
2023/03/22 12:33:13;;;;;;;12.70;5.20;;;10.50;99.90;;;;;;5095634;28;20040;-55
2023/03/22 12:35:43;;;;;;;9.77;5.20;;;10.90;99.90;;;;;;5093294;28;20048;-52
2023/03/22 12:38:23;;;;;;;12.25;5.85;;;10.70;99.90;;;;;;5095399;28;20369;-53
2023/03/22 12:40:52;;;;;;;12.30;6.30;;;10.70;99.90;;;;;;5095333;28;20043;-54
2023/03/22 12:43:54;;;;;;;13.07;6.70;;;10.80;99.90;;;;;;5095375;28;20036;-51
2023/03/22 12:46:34;;;;;;;10.70;5.53;;;10.70;99.90;;;;;;5095289;28;20052;-52
2023/03/22 12:49:02;;;;;;;16.77;5.53;;;9.90;99.90;;;;;;5094889;28;20177;-53
2023/03/22 12:51:27;;;;;;;15.25;6.90;;;10.10;99.90;;;;;;5095251;28;20032;-52
2023/03/22 12:53:58;;;;;;;14.60;5.45;;;10.60;99.90;;;;;;5094974;28;20381;-51
2023/03/22 12:56:31;;;;;;;12.35;6.90;;;9.90;99.90;;;;;;5095020;28;20040;-50
2023/03/22 12:59:02;;;;;;;11.60;5.57;;;10.80;99.90;;;;;;5094942;28;20044;-53
2023/03/22 13:01:36;;;;;;;13.25;5.63;;;9.90;99.90;;;;;;5093724;28;20443;-51